createdAt,value
2019-04-10T00:00:37.302Z,62.03
2019-04-10T00:01:36.799Z,62.44
2019-04-10T00:02:37.635Z,62.03
2019-04-10T00:03:39.135Z,62.24
2019-04-10T00:04:37.005Z,62.96
2019-04-10T00:05:36.766Z,62.75
2019-04-10T00:06:37.578Z,62.54
2019-04-10T00:07:37.481Z,62.65
2019-04-10T00:08:36.736Z,62.96
2019-04-10T00:09:36.715Z,62.65
2019-04-10T00:10:36.714Z,62.65
2019-04-10T00:11:36.733Z,62.68
2019-04-10T00:12:36.695Z,62.47
2019-04-10T00:13:36.694Z,62.65
2019-04-10T00:14:36.741Z,63.19
2019-04-10T00:15:36.653Z,63.68
2019-04-10T00:16:36.664Z,62.99
2019-04-10T00:17:37.504Z,62.88
2019-04-10T00:18:36.631Z,62.26
2019-04-10T00:19:36.619Z,62.37
2019-04-10T00:20:36.617Z,62.37
2019-04-10T00:21:37.424Z,62.37
2019-04-10T00:22:36.581Z,61.96
2019-04-10T00:23:37.376Z,62.06
2019-04-10T00:24:36.558Z,61.96
2019-04-10T00:25:37.116Z,61.96
2019-04-10T00:26:37.463Z,61.65
2019-04-10T00:27:36.833Z,61.44
2019-04-10T00:28:36.527Z,62.26
2019-04-10T00:29:36.511Z,62.68
2019-04-10T00:30:37.485Z,62.99
2019-04-10T00:31:36.508Z,62.71
2019-04-10T00:32:36.475Z,62.19
2019-04-10T00:33:36.744Z,62.50
2019-04-10T00:34:36.484Z,61.88
2019-04-10T00:35:37.207Z,61.68
2019-04-10T00:36:37.339Z,61.88
2019-04-10T00:37:37.361Z,63.01
2019-04-10T00:38:36.412Z,61.88
2019-04-10T00:39:36.918Z,61.78
2019-04-10T00:40:36.416Z,61.88
2019-04-10T00:41:36.559Z,61.88
2019-04-10T00:42:36.993Z,62.19
2019-04-10T00:43:37.117Z,62.19
2019-04-10T00:44:37.442Z,62.81
2019-04-10T00:45:36.337Z,61.98
2019-04-10T00:46:36.329Z,61.98
2019-04-10T00:47:37.345Z,61.70
2019-04-10T00:48:36.334Z,62.12
2019-04-10T00:49:36.309Z,62.12
2019-04-10T00:50:36.986Z,62.94
2019-04-10T00:51:36.340Z,62.94
2019-04-10T00:52:36.538Z,62.84
2019-04-10T00:53:37.132Z,63.04
2019-04-10T00:54:37.235Z,62.84
2019-04-10T00:55:36.224Z,62.01
2019-04-10T00:56:36.856Z,61.80
2019-04-10T00:57:37.154Z,61.70
2019-04-10T00:58:37.442Z,61.32
2019-04-10T00:59:36.607Z,60.18
2019-04-10T01:00:36.911Z,60.28
2019-04-10T01:01:37.407Z,59.77
2019-04-10T01:02:36.592Z,60.60
2019-04-10T01:03:36.151Z,60.39
2019-04-10T01:04:36.227Z,60.80
2019-04-10T01:05:36.126Z,60.49
2019-04-10T01:06:36.110Z,60.91
2019-04-10T01:07:39.559Z,60.83
2019-04-10T01:08:37.026Z,60.52
2019-04-10T01:09:36.079Z,61.55
2019-04-10T01:10:36.710Z,61.66
2019-04-10T01:11:36.079Z,61.66
2019-04-10T01:12:36.307Z,60.52
2019-04-10T01:13:36.899Z,60.21
2019-04-10T01:14:36.025Z,60.93
2019-04-10T01:15:36.452Z,60.31
2019-04-10T01:16:36.007Z,60.21
2019-04-10T01:17:35.995Z,60.63
2019-04-10T01:18:35.983Z,60.52
2019-04-10T01:19:36.375Z,60.83
2019-04-10T01:20:36.021Z,61.14
2019-04-10T01:21:36.784Z,61.14
2019-04-10T01:22:36.211Z,61.35
2019-04-10T01:23:35.923Z,61.45
2019-04-10T01:24:35.921Z,61.79
2019-04-10T01:25:36.773Z,61.58
2019-04-10T01:26:37.014Z,61.89
2019-04-10T01:27:36.134Z,62.51
2019-04-10T01:28:36.709Z,62.62
2019-04-10T01:29:35.866Z,60.75
2019-04-10T01:30:35.858Z,61.48
2019-04-10T01:31:35.870Z,61.58
2019-04-10T01:32:36.386Z,61.58
2019-04-10T01:33:36.840Z,61.07
2019-04-10T01:34:35.817Z,60.75
2019-04-10T01:35:35.804Z,61.58
2019-04-10T01:36:35.807Z,61.38
2019-04-10T01:37:47.704Z,60.65
2019-04-10T01:38:37.731Z,60.44
2019-04-10T01:39:35.764Z,60.24
2019-04-10T01:40:35.753Z,60.34
2019-04-10T01:41:36.280Z,60.14
2019-04-10T01:42:36.748Z,60.96
2019-04-10T01:43:35.741Z,61.51
2019-04-10T01:44:36.447Z,60.47
2019-04-10T01:45:35.738Z,60.99
2019-04-10T01:46:36.135Z,61.40
2019-04-10T01:47:35.693Z,61.20
2019-04-10T01:48:36.297Z,61.20
2019-04-10T01:49:35.747Z,61.82
2019-04-10T01:50:36.610Z,61.61
2019-04-10T01:51:35.645Z,62.23
2019-04-10T01:52:35.630Z,62.23
2019-04-10T01:53:35.682Z,61.40
2019-04-10T01:54:35.616Z,62.02
2019-04-10T01:55:35.775Z,61.40
2019-04-10T01:56:36.748Z,62.13
2019-04-10T01:57:36.553Z,61.82
2019-04-10T01:58:35.557Z,62.13
2019-04-10T01:59:36.160Z,61.61
2019-04-10T02:00:35.534Z,61.61
2019-04-10T02:01:36.632Z,61.92
2019-04-10T02:02:35.530Z,62.02
2019-04-10T02:03:36.246Z,61.92
2019-04-10T02:04:35.501Z,62.44
2019-04-10T02:05:36.401Z,62.02
2019-04-10T02:06:35.791Z,62.02
2019-04-10T02:07:35.461Z,61.61
2019-04-10T02:08:36.117Z,61.71
2019-04-10T02:09:35.459Z,62.02
2019-04-10T02:10:36.387Z,61.82
2019-04-10T02:11:35.428Z,61.92
2019-04-10T02:12:35.408Z,62.02
2019-04-10T02:13:35.850Z,62.34
2019-04-10T02:14:36.348Z,62.13
2019-04-10T02:15:36.328Z,62.34
2019-04-10T02:16:35.381Z,62.02
2019-04-10T02:17:35.370Z,62.34
2019-04-10T02:18:35.345Z,61.82
2019-04-10T02:19:36.390Z,61.71
2019-04-10T02:20:35.337Z,61.71
2019-04-10T02:21:35.989Z,61.71
2019-04-10T02:22:36.274Z,61.82
2019-04-10T02:23:36.470Z,61.74
2019-04-10T02:24:35.524Z,61.85
2019-04-10T02:25:35.262Z,62.23
2019-04-10T02:26:35.938Z,61.10
2019-04-10T02:27:35.366Z,61.30
2019-04-10T02:28:36.160Z,61.33
2019-04-10T02:29:35.668Z,61.82
2019-04-10T02:30:37.274Z,61.85
2019-04-10T02:31:36.471Z,61.85
2019-04-10T02:32:36.974Z,62.16
2019-04-10T02:33:35.635Z,61.95
2019-04-10T02:34:35.211Z,61.12
2019-04-10T02:35:36.161Z,60.60
2019-04-10T02:36:36.241Z,60.58
2019-04-10T02:37:35.199Z,60.99
2019-04-10T02:38:49.256Z,60.89
2019-04-10T02:39:42.473Z,60.78
2019-04-10T02:40:37.286Z,60.68
2019-04-10T02:41:36.376Z,60.47
2019-04-10T02:42:35.085Z,59.85
2019-04-10T02:43:36.007Z,59.75
2019-04-10T02:44:35.523Z,59.85
2019-04-10T02:45:36.436Z,59.75
2019-04-10T02:46:36.769Z,59.75
2019-04-10T02:47:35.061Z,59.75
2019-04-10T02:48:36.058Z,60.06
2019-04-10T02:49:36.449Z,60.47
2019-04-10T02:50:35.499Z,60.58
2019-04-10T02:51:35.269Z,60.47
2019-04-10T02:52:35.099Z,60.89
2019-04-10T02:53:35.274Z,61.51
2019-04-10T02:54:35.717Z,61.51
2019-04-10T02:55:35.555Z,61.82
2019-04-10T02:56:34.964Z,61.33
2019-04-10T02:57:36.647Z,60.27
2019-04-10T02:58:34.916Z,59.34
2019-04-10T02:59:35.190Z,60.06
2019-04-10T03:00:36.071Z,59.44
2019-04-10T03:01:35.587Z,59.23
2019-04-10T03:02:36.282Z,59.23
2019-04-10T03:03:36.132Z,59.85
2019-04-10T03:04:35.236Z,59.95
2019-04-10T03:05:35.373Z,60.58
2019-04-10T03:06:35.499Z,60.99
2019-04-10T03:07:35.864Z,60.68
2019-04-10T03:08:44.691Z,60.27
2019-04-10T03:09:49.499Z,59.95
2019-04-10T03:10:43.232Z,59.34
2019-04-10T03:11:35.838Z,59.26
2019-04-10T03:12:36.255Z,59.36
2019-04-10T03:13:35.877Z,60.09
2019-04-10T03:14:34.752Z,60.60
2019-04-10T03:15:35.961Z,61.12
2019-04-10T03:16:35.481Z,61.85
2019-04-10T03:17:34.899Z,62.57
2019-04-10T03:18:34.851Z,62.26
2019-04-10T03:19:35.803Z,62.67
2019-04-10T03:20:34.676Z,62.05
2019-04-10T03:21:35.432Z,62.37
2019-04-10T03:22:34.713Z,62.37
2019-04-10T03:23:35.633Z,62.46
2019-04-10T03:24:34.653Z,61.64
2019-04-10T03:25:35.169Z,61.64
2019-04-10T03:26:34.631Z,61.54
2019-04-10T03:27:34.633Z,61.74
2019-04-10T03:28:35.441Z,61.02
2019-04-10T03:29:34.591Z,61.02
2019-04-10T03:30:36.524Z,60.78
2019-04-10T03:31:34.699Z,60.58
2019-04-10T03:32:37.120Z,60.68
2019-04-10T03:33:39.494Z,60.27
2019-04-10T03:34:40.003Z,60.06
2019-04-10T03:35:35.651Z,60.16
2019-04-10T03:36:34.509Z,60.58
2019-04-10T03:37:34.508Z,60.99
2019-04-10T03:38:46.934Z,60.47
2019-04-10T03:39:35.959Z,61.10
2019-04-10T03:40:35.455Z,61.54
2019-04-10T03:41:34.542Z,60.89
2019-04-10T03:42:34.454Z,61.85
2019-04-10T03:43:34.445Z,61.33
2019-04-10T03:44:34.665Z,61.30
2019-04-10T03:45:34.784Z,61.10
2019-04-10T03:46:37.063Z,60.47
2019-04-10T03:47:35.506Z,60.68
2019-04-10T03:48:34.394Z,60.89
2019-04-10T03:49:34.372Z,62.16
2019-04-10T03:50:34.362Z,61.95
2019-04-10T03:51:34.522Z,63.40
2019-04-10T03:52:34.355Z,63.50
2019-04-10T03:53:34.340Z,63.60
2019-04-10T03:54:34.354Z,63.71
2019-04-10T03:55:34.829Z,63.09
2019-04-10T03:56:34.311Z,62.98
2019-04-10T03:57:34.418Z,62.77
2019-04-10T03:58:34.305Z,64.02
2019-04-10T03:59:34.289Z,64.84
2019-04-10T04:00:34.344Z,65.36
2019-04-10T04:01:35.318Z,65.67
2019-04-10T04:02:34.237Z,65.47
2019-04-10T04:03:35.056Z,64.95
2019-04-10T04:04:34.225Z,64.53
2019-04-10T04:05:34.963Z,64.23
2019-04-10T04:06:34.195Z,64.95
2019-04-10T04:07:34.745Z,65.67
2019-04-10T04:08:35.293Z,66.19
2019-04-10T04:09:34.182Z,66.19
2019-04-10T04:10:35.054Z,66.12
2019-04-10T04:11:34.159Z,66.22
2019-04-10T04:12:35.011Z,66.94
2019-04-10T04:13:34.150Z,66.87
2019-04-10T04:14:34.635Z,67.18
2019-04-10T04:15:34.101Z,66.97
2019-04-10T04:16:35.095Z,67.18
2019-04-10T04:17:34.079Z,67.08
2019-04-10T04:18:34.067Z,67.52
2019-04-10T04:19:34.562Z,67.73
2019-04-10T04:20:34.947Z,68.25
2019-04-10T04:21:34.182Z,68.25
2019-04-10T04:22:34.027Z,67.52
2019-04-10T04:23:34.092Z,68.04
2019-04-10T04:24:34.012Z,67.73
2019-04-10T04:25:34.507Z,68.15
2019-04-10T04:26:35.005Z,67.21
2019-04-10T04:27:33.975Z,67.21
2019-04-10T04:28:34.271Z,67.32
2019-04-10T04:29:34.515Z,67.11
2019-04-10T04:30:34.115Z,68.35
2019-04-10T04:31:33.922Z,67.73
2019-04-10T04:32:33.922Z,67.63
2019-04-10T04:33:34.119Z,66.59
2019-04-10T04:34:34.713Z,67.00
2019-04-10T04:35:34.625Z,67.83
2019-04-10T04:36:33.872Z,68.15
2019-04-10T04:37:33.875Z,67.94
2019-04-10T04:38:34.613Z,68.35
2019-04-10T04:39:34.949Z,69.29
2019-04-10T04:40:33.850Z,68.66
2019-04-10T04:41:33.877Z,67.94
2019-04-10T04:42:33.807Z,67.32
2019-04-10T04:43:33.921Z,67.52
2019-04-10T04:44:33.800Z,67.73
2019-04-10T04:45:33.825Z,67.11
2019-04-10T04:46:34.585Z,66.80
2019-04-10T04:47:33.795Z,66.49
2019-04-10T04:48:34.247Z,66.28
2019-04-10T04:49:33.743Z,66.49
2019-04-10T04:50:34.239Z,66.38
2019-04-10T04:51:34.616Z,67.00
2019-04-10T04:52:34.890Z,66.80
2019-04-10T04:53:34.378Z,67.63
2019-04-10T04:54:33.683Z,67.63
2019-04-10T04:55:33.693Z,68.15
2019-04-10T04:56:33.823Z,68.46
2019-04-10T04:57:35.232Z,68.46
2019-04-10T04:58:33.999Z,69.08
2019-04-10T04:59:34.590Z,69.80
2019-04-10T05:00:34.058Z,69.90
2019-04-10T05:01:33.608Z,70.46
2019-04-10T05:02:34.618Z,71.18
2019-04-10T05:03:33.596Z,71.39
2019-04-10T05:04:33.769Z,71.08
2019-04-10T05:05:33.673Z,71.18
2019-04-10T05:06:33.566Z,71.70
2019-04-10T05:07:33.555Z,71.39
2019-04-10T05:08:34.431Z,71.28
2019-04-10T05:09:38.395Z,71.28
2019-04-10T05:10:35.608Z,71.18
2019-04-10T05:11:34.278Z,71.39
2019-04-10T05:12:33.943Z,71.39
2019-04-10T05:13:33.482Z,71.70
2019-04-10T05:14:33.577Z,71.80
2019-04-10T05:15:33.479Z,72.01
2019-04-10T05:16:33.457Z,72.11
2019-04-10T05:17:33.441Z,71.28
2019-04-10T05:18:33.441Z,71.39
2019-04-10T05:19:34.040Z,72.01
2019-04-10T05:20:45.039Z,71.70
2019-04-10T05:21:35.112Z,71.80
2019-04-10T05:22:34.009Z,72.53
2019-04-10T05:23:33.390Z,71.49
2019-04-10T05:24:33.377Z,71.39
2019-04-10T05:25:34.344Z,71.18
2019-04-10T05:26:34.281Z,71.39
2019-04-10T05:27:33.346Z,71.77
2019-04-10T05:28:33.325Z,70.63
2019-04-10T05:29:33.334Z,70.08
2019-04-10T05:30:33.561Z,68.60
2019-04-10T05:31:34.201Z,67.88
2019-04-10T05:32:33.283Z,66.09
2019-04-10T05:33:33.291Z,65.61
2019-04-10T05:34:33.866Z,63.99
2019-04-10T05:35:33.262Z,64.68
2019-04-10T05:36:33.562Z,63.93
2019-04-10T05:37:33.780Z,61.73
2019-04-10T05:38:33.389Z,60.98
2019-04-10T05:39:42.354Z,59.41
2019-04-10T05:40:34.662Z,58.25
2019-04-10T05:41:33.595Z,57.24
2019-04-10T05:42:33.178Z,56.93
2019-04-10T05:43:34.127Z,56.08
2019-04-10T05:44:34.036Z,54.22
2019-04-10T05:45:33.874Z,55.41
2019-04-10T05:46:33.186Z,54.69
2019-04-10T05:47:33.126Z,54.22
2019-04-10T05:48:33.480Z,53.58
2019-04-10T05:49:33.177Z,51.87
2019-04-10T05:50:33.084Z,51.48
2019-04-10T05:51:33.095Z,52.61
2019-04-10T05:52:33.274Z,51.99
2019-04-10T05:53:33.044Z,52.97
2019-04-10T05:54:33.273Z,54.00
2019-04-10T05:55:33.126Z,53.00
2019-04-10T05:56:33.034Z,51.35
2019-04-10T05:57:33.032Z,51.43
2019-04-10T05:58:33.362Z,50.26
2019-04-10T05:59:34.183Z,49.33
2019-04-10T06:00:32.986Z,49.23
2019-04-10T06:01:38.127Z,48.47
2019-04-10T06:02:34.122Z,48.66
2019-04-10T06:03:32.958Z,49.48
2019-04-10T06:04:33.603Z,49.38
2019-04-10T06:05:34.090Z,48.39
2019-04-10T06:06:32.931Z,47.42
2019-04-10T06:07:32.949Z,46.04
2019-04-10T06:08:33.539Z,45.06
2019-04-10T06:09:33.171Z,43.51
2019-04-10T06:10:32.901Z,44.67
2019-04-10T06:11:33.155Z,43.59
2019-04-10T06:12:33.835Z,44.10
2019-04-10T06:13:32.838Z,46.12
2019-04-10T06:14:32.890Z,45.61
2019-04-10T06:15:32.951Z,46.70
2019-04-10T06:16:32.806Z,47.49
2019-04-10T06:17:32.918Z,47.44
2019-04-10T06:18:33.351Z,45.98
2019-04-10T06:19:32.775Z,46.52
2019-04-10T06:20:33.500Z,45.37
2019-04-10T06:21:32.754Z,45.33
2019-04-10T06:22:32.763Z,45.60
2019-04-10T06:23:33.735Z,44.04
2019-04-10T06:24:32.733Z,42.26
2019-04-10T06:25:34.121Z,41.30
2019-04-10T06:26:32.772Z,41.33
2019-04-10T06:27:32.750Z,40.49
2019-04-10T06:28:32.716Z,39.04
2019-04-10T06:29:32.897Z,39.49
2019-04-10T06:30:32.681Z,40.51
2019-04-10T06:31:32.681Z,39.53
2019-04-10T06:32:32.660Z,39.17
2019-04-10T06:33:32.635Z,40.19
2019-04-10T06:34:32.631Z,40.51
2019-04-10T06:35:32.607Z,42.81
2019-04-10T06:36:33.405Z,46.07
2019-04-10T06:37:34.506Z,48.85
2019-04-10T06:38:32.569Z,50.83
2019-04-10T06:39:33.215Z,49.78
2019-04-10T06:40:33.391Z,50.21
2019-04-10T06:41:32.751Z,50.70
2019-04-10T06:42:44.347Z,49.44
2019-04-10T06:43:33.531Z,51.26
2019-04-10T06:44:32.508Z,51.39
2019-04-10T06:45:33.589Z,50.36
2019-04-10T06:46:32.728Z,49.78
2019-04-10T06:47:32.465Z,46.87
2019-04-10T06:48:32.467Z,42.63
2019-04-10T06:49:33.178Z,40.06
2019-04-10T06:50:32.474Z,39.08
2019-04-10T06:51:33.412Z,37.49
2019-04-10T06:52:32.445Z,37.29
2019-04-10T06:53:33.195Z,37.33
2019-04-10T06:54:33.126Z,38.91
2019-04-10T06:55:32.425Z,37.51
2019-04-10T06:56:33.356Z,38.14
2019-04-10T06:57:33.747Z,36.65
2019-04-10T06:58:34.003Z,35.86
2019-04-10T06:59:32.503Z,34.83
2019-04-10T07:00:32.762Z,39.42
2019-04-10T07:01:40.471Z,40.69
2019-04-10T07:02:34.611Z,41.71
2019-04-10T07:03:45.812Z,39.15
2019-04-10T07:04:44.167Z,37.38
2019-04-10T07:05:41.404Z,37.87
2019-04-10T07:06:47.139Z,39.69
2019-04-10T07:07:46.535Z,40.01
2019-04-10T07:08:34.096Z,40.31
2019-04-10T07:09:32.274Z,38.59
2019-04-10T07:10:45.684Z,35.63
2019-04-10T07:11:34.425Z,34.32
2019-04-10T07:12:34.087Z,35.86
2019-04-10T07:13:32.298Z,36.05
2019-04-10T07:14:35.017Z,36.34
2019-04-10T07:15:32.207Z,36.22
2019-04-10T07:16:33.840Z,37.48
2019-04-10T07:17:35.700Z,40.30
2019-04-10T07:18:35.784Z,46.98
2019-04-10T07:19:32.402Z,51.60
2019-04-10T07:20:32.118Z,54.12
2019-04-10T07:21:34.962Z,55.51
2019-04-10T07:22:33.098Z,56.98
2019-04-10T07:23:33.448Z,58.12
2019-04-10T07:24:36.931Z,57.40
2019-04-10T07:25:33.098Z,58.12
2019-04-10T07:26:39.372Z,57.81
2019-04-10T07:27:36.008Z,57.94
2019-04-10T07:28:34.126Z,57.21
2019-04-10T07:29:32.056Z,55.59
2019-04-10T07:30:32.015Z,56.54
2019-04-10T07:31:34.980Z,56.85
2019-04-10T07:32:32.082Z,56.52
2019-04-10T07:33:32.875Z,56.31
2019-04-10T07:34:32.076Z,55.51
2019-04-10T07:35:33.931Z,55.62
2019-04-10T07:36:32.883Z,55.41
2019-04-10T07:37:32.039Z,55.93
2019-04-10T07:38:32.921Z,55.69
2019-04-10T07:39:33.537Z,55.66
2019-04-10T07:40:35.691Z,55.87
2019-04-10T07:41:31.940Z,55.13
2019-04-10T07:42:36.869Z,55.07
2019-04-10T07:43:32.884Z,51.98
2019-04-10T07:44:31.856Z,49.19
2019-04-10T07:45:31.867Z,45.72
2019-04-10T07:46:32.675Z,44.55
2019-04-10T07:47:31.867Z,42.87
2019-04-10T07:48:31.819Z,41.24
2019-04-10T07:49:32.884Z,41.05
2019-04-10T07:50:31.805Z,41.11
2019-04-10T07:51:31.940Z,40.77
2019-04-10T07:52:32.928Z,39.94
2019-04-10T07:53:31.763Z,39.75
2019-04-10T07:54:32.934Z,40.35
2019-04-10T07:55:33.023Z,41.31
2019-04-10T07:56:31.725Z,39.82
2019-04-10T07:57:32.812Z,40.27
2019-04-10T07:58:31.701Z,39.53
2019-04-10T07:59:31.712Z,39.72
2019-04-10T08:00:32.065Z,39.36
2019-04-10T08:01:31.673Z,39.97
2019-04-10T08:02:31.802Z,39.42
2019-04-10T08:03:31.663Z,40.67
2019-04-10T08:04:31.734Z,40.22
2019-04-10T08:05:31.641Z,39.28
2019-04-10T08:06:31.630Z,37.58
2019-04-10T08:07:34.482Z,35.14
2019-04-10T08:08:31.600Z,33.47
2019-04-10T08:09:31.590Z,31.44
2019-04-10T08:10:32.650Z,33.66
2019-04-10T08:11:31.680Z,36.02
2019-04-10T08:12:40.577Z,36.80
2019-04-10T08:13:33.127Z,37.38
2019-04-10T08:14:31.561Z,40.11
2019-04-10T08:15:31.662Z,39.94
2019-04-10T08:16:31.522Z,37.49
2019-04-10T08:17:32.488Z,36.02
2019-04-10T08:18:31.731Z,36.92
2019-04-10T08:19:31.528Z,36.36
2019-04-10T08:20:32.604Z,38.28
2019-04-10T08:21:31.731Z,38.96
2019-04-10T08:22:31.456Z,38.45
2019-04-10T08:23:32.017Z,36.87
2019-04-10T08:24:32.262Z,37.09
2019-04-10T08:25:31.435Z,36.96
2019-04-10T08:26:32.423Z,36.77
2019-04-10T08:27:32.038Z,39.48
2019-04-10T08:28:31.388Z,38.60
2019-04-10T08:29:32.560Z,37.50
2019-04-10T08:30:32.142Z,38.15
2019-04-10T08:31:31.364Z,39.53
2019-04-10T08:32:32.259Z,38.30
2019-04-10T08:33:32.228Z,36.68
2019-04-10T08:34:31.526Z,35.24
2019-04-10T08:35:31.554Z,35.56
2019-04-10T08:36:31.872Z,35.85
2019-04-10T08:37:31.355Z,37.75
2019-04-10T08:38:32.288Z,36.21
2019-04-10T08:39:38.415Z,36.40
2019-04-10T08:40:32.279Z,36.29
2019-04-10T08:41:31.259Z,36.21
2019-04-10T08:42:31.282Z,37.14
2019-04-10T08:43:32.368Z,35.14
2019-04-10T08:44:31.909Z,33.72
2019-04-10T08:45:40.151Z,31.10
2019-04-10T08:46:32.225Z,31.44
2019-04-10T08:47:31.406Z,31.12
2019-04-10T08:48:31.985Z,32.54
2019-04-10T08:49:31.178Z,34.61
2019-04-10T08:50:32.193Z,34.97
2019-04-10T08:51:33.111Z,38.03
2019-04-10T08:52:31.139Z,39.26
2019-04-10T08:53:31.138Z,40.21
2019-04-10T08:54:32.155Z,40.30
2019-04-10T08:55:32.284Z,39.34
2019-04-10T08:56:32.230Z,38.71
2019-04-10T08:57:31.889Z,40.13
2019-04-10T08:58:31.078Z,42.54
2019-04-10T08:59:31.928Z,44.04
2019-04-10T09:00:32.241Z,45.31
2019-04-10T09:01:31.727Z,47.08
2019-04-10T09:02:31.025Z,47.69
2019-04-10T09:03:31.015Z,50.38
2019-04-10T09:04:31.229Z,49.56
2019-04-10T09:05:30.985Z,50.62
2019-04-10T09:06:31.523Z,51.23
2019-04-10T09:07:30.975Z,51.15
2019-04-10T09:08:30.995Z,52.19
2019-04-10T09:09:31.869Z,52.68
2019-04-10T09:10:30.952Z,51.31
2019-04-10T09:11:32.652Z,52.68
2019-04-10T09:12:31.653Z,52.55
2019-04-10T09:13:30.914Z,51.42
2019-04-10T09:14:30.922Z,51.44
2019-04-10T09:15:31.935Z,52.34
2019-04-10T09:16:31.119Z,50.62
2019-04-10T09:17:31.359Z,50.51
2019-04-10T09:18:31.564Z,50.66
2019-04-10T09:19:30.859Z,51.78
2019-04-10T09:20:31.010Z,51.98
2019-04-10T09:21:31.709Z,50.87
2019-04-10T09:22:49.092Z,51.78
2019-04-10T09:23:40.922Z,52.06
2019-04-10T09:24:31.786Z,50.92
2019-04-10T09:25:31.229Z,50.49
2019-04-10T09:26:30.765Z,50.18
2019-04-10T09:27:30.786Z,50.67
2019-04-10T09:28:30.776Z,48.74
2019-04-10T09:29:31.912Z,49.27
2019-04-10T09:30:31.024Z,49.69
2019-04-10T09:31:31.599Z,50.02
2019-04-10T09:32:30.749Z,50.02
2019-04-10T09:33:32.020Z,49.09
2019-04-10T09:34:31.748Z,50.46
2019-04-10T09:35:30.924Z,50.04
2019-04-10T09:36:30.662Z,51.46
2019-04-10T09:37:31.210Z,50.20
2019-04-10T09:38:30.747Z,50.28
2019-04-10T09:39:31.662Z,49.79
2019-04-10T09:40:30.683Z,49.30
2019-04-10T09:41:30.606Z,49.19
2019-04-10T09:42:31.121Z,49.38
2019-04-10T09:43:31.692Z,48.55
2019-04-10T09:44:30.587Z,48.66
2019-04-10T09:45:30.677Z,48.04
2019-04-10T09:46:31.049Z,48.24
2019-04-10T09:47:30.547Z,48.35
2019-04-10T09:48:31.594Z,48.02
2019-04-10T09:49:38.352Z,47.50
2019-04-10T09:50:31.536Z,47.81
2019-04-10T09:51:31.880Z,47.60
2019-04-10T09:52:30.493Z,47.40
2019-04-10T09:53:30.473Z,48.66
2019-04-10T09:54:31.600Z,48.88
2019-04-10T09:55:30.462Z,48.58
2019-04-10T09:56:30.462Z,48.68
2019-04-10T09:57:30.431Z,48.78
2019-04-10T09:58:30.421Z,48.68
2019-04-10T09:59:35.519Z,48.68
2019-04-10T10:00:31.932Z,48.37
2019-04-10T10:01:30.419Z,48.24
2019-04-10T10:02:31.530Z,47.34
2019-04-10T10:03:30.401Z,47.34
2019-04-10T10:04:31.267Z,47.13
2019-04-10T10:05:30.733Z,47.56
2019-04-10T10:06:34.528Z,47.16
2019-04-10T10:07:31.319Z,47.36
2019-04-10T10:08:30.318Z,47.85
2019-04-10T10:09:30.713Z,47.11
2019-04-10T10:10:32.893Z,46.39
2019-04-10T10:11:30.707Z,47.42
2019-04-10T10:12:30.276Z,46.67
2019-04-10T10:13:30.264Z,46.67
2019-04-10T10:14:32.693Z,47.40
2019-04-10T10:15:31.339Z,46.14
2019-04-10T10:16:30.421Z,45.65
2019-04-10T10:17:30.809Z,46.67
2019-04-10T10:18:30.292Z,47.09
2019-04-10T10:19:30.191Z,46.37
2019-04-10T10:20:30.746Z,47.01
2019-04-10T10:21:30.388Z,47.31
2019-04-10T10:22:30.918Z,47.42
2019-04-10T10:23:30.269Z,48.12
2019-04-10T10:24:30.913Z,47.19
2019-04-10T10:25:31.243Z,46.67
2019-04-10T10:26:30.233Z,47.19
2019-04-10T10:27:30.230Z,46.66
2019-04-10T10:28:30.993Z,47.17
2019-04-10T10:29:30.175Z,46.76
2019-04-10T10:30:30.088Z,46.47
2019-04-10T10:31:30.489Z,47.09
2019-04-10T10:32:30.055Z,46.47
2019-04-10T10:33:30.065Z,46.16
2019-04-10T10:34:30.281Z,46.67
2019-04-10T10:35:30.026Z,46.34
2019-04-10T10:36:40.825Z,47.17
2019-04-10T10:37:31.003Z,46.94
2019-04-10T10:38:30.108Z,46.10
2019-04-10T10:39:30.726Z,45.58
2019-04-10T10:40:30.000Z,44.89
2019-04-10T10:41:29.966Z,45.09
2019-04-10T10:42:29.966Z,44.39
2019-04-10T10:43:29.961Z,45.94
2019-04-10T10:44:30.172Z,45.40
2019-04-10T10:45:31.065Z,45.09
2019-04-10T10:46:31.481Z,44.89
2019-04-10T10:47:30.685Z,44.29
2019-04-10T10:48:29.916Z,45.62
2019-04-10T10:49:30.635Z,46.01
2019-04-10T10:50:31.040Z,44.26
2019-04-10T10:51:30.837Z,44.68
2019-04-10T10:52:29.878Z,43.93
2019-04-10T10:53:30.379Z,44.04
2019-04-10T10:54:29.827Z,44.04
2019-04-10T10:55:29.822Z,44.57
2019-04-10T10:56:30.677Z,43.85
2019-04-10T10:57:29.803Z,45.21
2019-04-10T10:58:30.052Z,45.19
2019-04-10T10:59:29.803Z,44.98
2019-04-10T11:00:29.753Z,44.47
2019-04-10T11:01:29.785Z,44.98
2019-04-10T11:02:29.762Z,44.17
2019-04-10T11:03:29.971Z,43.32
2019-04-10T11:04:29.734Z,43.73
2019-04-10T11:05:31.789Z,42.70
2019-04-10T11:06:29.714Z,42.70
2019-04-10T11:07:31.049Z,43.44
2019-04-10T11:08:29.670Z,44.57
2019-04-10T11:09:30.198Z,43.98
2019-04-10T11:10:30.135Z,43.87
2019-04-10T11:11:30.783Z,44.70
2019-04-10T11:12:30.486Z,44.49
2019-04-10T11:13:30.753Z,44.26
2019-04-10T11:14:30.011Z,44.26
2019-04-10T11:15:29.618Z,45.19
2019-04-10T11:16:29.657Z,45.19
2019-04-10T11:17:29.823Z,45.19
2019-04-10T11:18:30.719Z,45.89
2019-04-10T11:19:29.565Z,45.28
2019-04-10T11:20:29.834Z,45.07
2019-04-10T11:21:30.029Z,43.01
2019-04-10T11:22:29.590Z,43.52
2019-04-10T11:23:30.557Z,44.86
2019-04-10T11:24:29.521Z,44.53
2019-04-10T11:25:30.093Z,43.61
2019-04-10T11:26:30.299Z,42.82
2019-04-10T11:27:29.514Z,44.39
2019-04-10T11:28:30.724Z,44.98
2019-04-10T11:29:31.369Z,44.78
2019-04-10T11:30:29.482Z,45.68
2019-04-10T11:31:29.474Z,45.87
2019-04-10T11:32:30.429Z,44.82
2019-04-10T11:33:30.745Z,44.41
2019-04-10T11:34:30.573Z,43.48
2019-04-10T11:35:29.388Z,43.59
2019-04-10T11:36:30.060Z,42.99
2019-04-10T11:37:37.345Z,44.33
2019-04-10T11:38:30.368Z,44.72
2019-04-10T11:39:33.057Z,43.18
2019-04-10T11:40:31.781Z,43.07
2019-04-10T11:41:30.854Z,43.71
2019-04-10T11:42:31.779Z,42.58
2019-04-10T11:43:30.244Z,43.09
2019-04-10T11:44:29.779Z,44.43
2019-04-10T11:45:38.026Z,44.23
2019-04-10T11:46:32.093Z,43.79
2019-04-10T11:47:31.321Z,43.42
2019-04-10T11:48:29.501Z,44.56
2019-04-10T11:49:31.055Z,45.37
2019-04-10T11:50:30.005Z,43.52
2019-04-10T11:51:31.536Z,42.19
2019-04-10T11:53:32.600Z,42.29
2019-04-10T11:54:32.214Z,42.72
2019-04-10T11:55:29.789Z,43.34
2019-04-10T11:56:30.231Z,43.84
2019-04-10T11:57:30.804Z,44.23
2019-04-10T11:58:29.171Z,45.36
2019-04-10T11:59:31.556Z,45.68
2019-04-10T12:01:39.225Z,45.43
2019-04-10T12:02:39.736Z,44.41
2019-04-10T12:03:44.222Z,43.59
2019-04-10T12:04:48.383Z,42.77
2019-04-10T12:05:41.235Z,42.07
2019-04-10T12:06:39.817Z,42.89
2019-04-10T12:08:00.198Z,44.02
2019-04-10T12:09:04.366Z,45.64
2019-04-10T12:11:39.245Z,44.20
2019-04-10T12:12:37.899Z,44.08
2019-04-10T12:13:38.708Z,44.10
2019-04-10T12:14:37.880Z,45.01
2019-04-10T12:15:38.646Z,46.01
2019-04-10T12:16:38.831Z,43.96
2019-04-10T12:17:38.192Z,43.36
2019-04-10T12:18:38.388Z,44.08
2019-04-10T12:19:38.362Z,44.08
2019-04-10T12:20:37.805Z,43.98
2019-04-10T12:21:38.022Z,42.64
2019-04-10T12:22:37.976Z,43.55
2019-04-10T12:23:37.826Z,43.03
2019-04-10T12:24:38.424Z,43.26
2019-04-10T12:26:27.610Z,43.75
2019-04-10T12:27:27.358Z,43.24
2019-04-10T12:28:27.734Z,43.44
2019-04-10T12:29:26.913Z,42.64
2019-04-10T12:30:27.019Z,43.57
2019-04-10T12:31:28.035Z,42.74
2019-04-10T12:32:26.852Z,42.85
2019-04-10T12:33:27.605Z,44.39
2019-04-10T12:34:26.838Z,42.85
2019-04-10T12:35:26.827Z,42.56
2019-04-10T12:36:26.808Z,43.28
2019-04-10T12:37:27.729Z,42.66
2019-04-10T12:38:27.719Z,43.18
2019-04-10T12:39:27.928Z,43.18
2019-04-10T12:40:26.768Z,42.97
2019-04-10T12:41:27.711Z,43.57
2019-04-10T12:42:28.427Z,43.87
2019-04-10T12:43:27.319Z,43.85
2019-04-10T12:44:26.734Z,42.32
2019-04-10T12:45:26.705Z,42.29
2019-04-10T12:46:26.840Z,41.47
2019-04-10T12:47:26.704Z,40.47
2019-04-10T12:48:26.735Z,40.59
2019-04-10T12:49:27.676Z,40.28
2019-04-10T12:50:26.673Z,41.41
2019-04-10T12:51:27.722Z,42.64
2019-04-10T12:52:26.870Z,42.44
2019-04-10T12:53:27.507Z,42.13
2019-04-10T12:54:27.900Z,42.13
2019-04-10T12:55:26.642Z,43.05
2019-04-10T12:56:26.624Z,41.82
2019-04-10T12:57:26.715Z,42.64